This is the latest recevied weather packets stored in our database for station/object AF9W-5. If no packets are shown the sender has not sent any weather packets the latest 10 day(s).
| Time | Temp. | Humidity | Pressure | Rain* | Wind** | Luminosity | Snow |
|---|---|---|---|---|---|---|---|
| 1777779244 | 25° C | 28% | 1011.8 hPa | 0 mm | - | 0 W/m² | - |
| 1777778941 | 25° C | 28% | 1011.8 hPa | 0 mm | - | 0 W/m² | - |
| 1777778640 | 25° C | 28% | 1012 hPa | 0 mm | - | 0 W/m² | - |
| 1777778337 | 25° C | 28% | 1012 hPa | 0 mm | - | 0 W/m² | - |
| 1777778035 | 25° C | 28% | 1011.9 hPa | 0 mm | - | 0 W/m² | - |
| 1777777731 | 25.56° C | 28% | 1011.9 hPa | 0 mm | - | 0 W/m² | - |
| 1777777428 | 25.56° C | 27% | 1012 hPa | 0 mm | - | 0 W/m² | - |
| 1777777124 | 25.56° C | 27% | 1011.8 hPa | 0 mm | - | 0 W/m² | - |
| 1777776822 | 25.56° C | 27% | 1011.8 hPa | 0 mm | - | 0 W/m² | - |
| 1777776518 | 25.56° C | 27% | 1011.7 hPa | 0 mm | - | 0 W/m² | - |
| 1777776210 | 25.56° C | 27% | 1011.4 hPa | 0 mm | - | 0 W/m² | - |
| 1777775906 | 25.56° C | 26% | 1011.5 hPa | 0 mm | - | 0 W/m² | - |
| 1777775300 | 26.11° C | 25% | 1011.9 hPa | 0 mm | - | 0 W/m² | - |
| 1777774995 | 26.11° C | 25% | 1011.5 hPa | 0 mm | - | 0 W/m² | - |
| 1777774691 | 26.11° C | 26% | 1011.4 hPa | 0 mm | - | 0 W/m² | - |
| 1777774387 | 26.67° C | 25% | 1011.7 hPa | 0 mm | - | 1 W/m² | - |
| 1777774085 | 26.11° C | 25% | 1011.5 hPa | 0 mm | - | 2 W/m² | - |
| 1777773783 | 26.67° C | 22% | 1012 hPa | 0 mm | - | 4 W/m² | - |
| 1777773478 | 26.11° C | 22% | 1011.5 hPa | 0 mm | - | 6 W/m² | - |
| 1777773176 | 26.67° C | 22% | 1011.7 hPa | 0 mm | - | 9 W/m² | - |
| 1777772871 | 26.67° C | 22% | 1011.8 hPa | 0 mm | - | 14 W/m² | - |
| 1777772569 | 27.22° C | 21% | 1011.8 hPa | 0 mm | - | 19 W/m² | - |
| 1777772266 | 27.22° C | 21% | 1011.9 hPa | 0 mm | - | 23 W/m² | - |
| 1777771964 | 27.22° C | 21% | 1011.7 hPa | 0 mm | - | 26 W/m² | - |
| 1777771661 | 27.22° C | 20% | 1011.5 hPa | 0 mm | - | 35 W/m² | - |
* Rain latest hour (hover to see other rain measurements)
** Current wind speed in m/s (hover to see current wind gust speed)